createdAt,value
2018-01-10T00:00:16.831Z,85.92
2018-01-10T00:02:44.787Z,86.00
2018-01-10T00:05:13.132Z,86.12
2018-01-10T00:07:40.592Z,86.42
2018-01-10T00:10:08.394Z,86.23
2018-01-10T00:12:35.849Z,86.41
2018-01-10T00:15:03.355Z,86.47
2018-01-10T00:17:30.831Z,86.50
2018-01-10T00:19:58.371Z,86.57
2018-01-10T00:22:25.842Z,86.54
2018-01-10T00:24:53.673Z,86.45
2018-01-10T00:27:21.155Z,86.46
2018-01-10T00:29:48.667Z,86.46
2018-01-10T00:32:16.197Z,86.27
2018-01-10T00:34:43.717Z,86.20
2018-01-10T00:37:11.339Z,86.21
2018-01-10T00:39:38.814Z,86.27
2018-01-10T00:42:06.327Z,86.58
2018-01-10T00:44:33.864Z,86.64
2018-01-10T00:47:01.368Z,86.73
2018-01-10T00:49:28.836Z,86.72
2018-01-10T00:51:56.354Z,86.86
2018-01-10T00:54:23.824Z,86.89
2018-01-10T00:56:51.298Z,86.87
2018-01-10T00:59:18.755Z,86.94
2018-01-10T01:01:46.365Z,87.07
2018-01-10T01:04:13.898Z,87.11
2018-01-10T01:06:41.413Z,87.28
2018-01-10T01:09:08.925Z,87.01
2018-01-10T01:11:36.448Z,86.94
2018-01-10T01:14:04.099Z,86.96
2018-01-10T01:16:31.571Z,86.98
2018-01-10T01:18:59.061Z,86.98
2018-01-10T01:21:26.633Z,86.81
2018-01-10T01:23:54.113Z,86.99
2018-01-10T01:26:21.749Z,86.65
2018-01-10T01:28:49.218Z,86.71
2018-01-10T01:31:16.748Z,87.07
2018-01-10T01:33:44.944Z,87.13
2018-01-10T01:36:12.439Z,87.16
2018-01-10T01:38:39.912Z,87.11
2018-01-10T01:41:07.382Z,87.20
2018-01-10T01:43:34.850Z,87.32
2018-01-10T01:46:02.309Z,87.33
2018-01-10T01:48:29.782Z,87.28
2018-01-10T01:50:58.121Z,87.20
2018-01-10T01:53:25.669Z,87.18
2018-01-10T01:55:54.221Z,87.28
2018-01-10T01:58:21.728Z,87.25
2018-01-10T02:00:49.723Z,87.08
2018-01-10T02:03:17.706Z,87.33
2018-01-10T02:05:45.179Z,87.32
2018-01-10T02:08:13.834Z,87.36
2018-01-10T02:10:41.415Z,87.65
2018-01-10T02:13:08.941Z,87.85
2018-01-10T02:15:36.436Z,87.79
2018-01-10T02:18:03.977Z,87.82
2018-01-10T02:20:31.876Z,87.88
2018-01-10T02:22:59.412Z,87.97
2018-01-10T02:25:26.962Z,87.83
2018-01-10T02:28:00.167Z,87.84
2018-01-10T02:30:27.694Z,87.98
2018-01-10T02:32:55.199Z,87.97
2018-01-10T02:35:23.040Z,87.94
2018-01-10T02:37:50.519Z,87.97
2018-01-10T02:40:18.256Z,88.02
2018-01-10T02:42:45.713Z,87.90
2018-01-10T02:45:13.220Z,87.73
2018-01-10T02:47:40.713Z,87.54
2018-01-10T02:50:08.190Z,87.44
2018-01-10T02:52:35.728Z,87.32
2018-01-10T02:55:03.186Z,87.35
2018-01-10T02:57:30.674Z,87.48
2018-01-10T02:59:58.257Z,87.54
2018-01-10T03:02:25.752Z,87.62
2018-01-10T03:04:53.432Z,87.64
2018-01-10T03:07:21.459Z,87.64
2018-01-10T03:09:49.236Z,87.63
2018-01-10T03:12:16.746Z,87.70
2018-01-10T03:14:44.331Z,87.88
2018-01-10T03:17:12.835Z,87.91
2018-01-10T03:19:40.927Z,88.04
2018-01-10T03:22:10.101Z,88.01
2018-01-10T03:24:38.524Z,88.01
2018-01-10T03:27:06.095Z,87.91
2018-01-10T03:29:35.517Z,87.91
2018-01-10T03:32:03.123Z,87.83
2018-01-10T03:34:30.674Z,87.73
2018-01-10T03:36:58.197Z,87.57
2018-01-10T03:39:26.046Z,87.56
2018-01-10T03:41:53.551Z,87.45
2018-01-10T03:44:21.030Z,87.34
2018-01-10T03:46:48.533Z,87.36
2018-01-10T03:49:15.995Z,87.30
2018-01-10T03:51:43.484Z,87.43
2018-01-10T03:54:10.968Z,87.42
2018-01-10T03:56:38.946Z,87.49
2018-01-10T03:59:07.294Z,87.49
2018-01-10T04:01:34.840Z,87.32
2018-01-10T04:04:02.335Z,87.30
2018-01-10T04:06:29.816Z,87.42
2018-01-10T04:08:57.294Z,87.41
2018-01-10T04:11:24.830Z,87.32
2018-01-10T04:13:52.360Z,87.17
2018-01-10T04:16:19.824Z,87.21
2018-01-10T04:18:47.428Z,87.27
2018-01-10T04:21:14.900Z,87.46
2018-01-10T04:23:42.450Z,87.46
2018-01-10T04:26:09.965Z,87.63
2018-01-10T04:28:37.504Z,87.90
2018-01-10T04:31:04.950Z,88.10
2018-01-10T04:33:32.448Z,87.97
2018-01-10T04:35:59.910Z,87.99
2018-01-10T04:38:27.517Z,88.12
2018-01-10T04:40:55.013Z,88.13
2018-01-10T04:43:22.567Z,88.01
2018-01-10T04:45:50.015Z,88.03
2018-01-10T04:48:18.068Z,88.07
2018-01-10T04:50:45.612Z,88.04
2018-01-10T04:53:13.146Z,87.92
2018-01-10T04:55:40.655Z,87.92
2018-01-10T04:58:11.551Z,87.79
2018-01-10T05:00:39.070Z,87.73
2018-01-10T05:03:06.536Z,87.75
2018-01-10T05:05:34.053Z,87.64
2018-01-10T05:08:01.584Z,87.47
2018-01-10T05:10:29.151Z,87.50
2018-01-10T05:12:56.624Z,87.54
2018-01-10T05:15:24.086Z,87.53
2018-01-10T05:17:51.649Z,87.45
2018-01-10T05:20:19.107Z,87.50
2018-01-10T05:22:46.743Z,87.43
2018-01-10T05:25:14.217Z,87.44
2018-01-10T05:27:41.695Z,87.37
2018-01-10T05:30:09.230Z,87.26
2018-01-10T05:32:36.719Z,87.20
2018-01-10T05:35:05.171Z,87.16
2018-01-10T05:37:33.326Z,87.15
2018-01-10T05:40:06.140Z,87.05
2018-01-10T05:42:33.697Z,87.06
2018-01-10T05:45:01.221Z,87.10
2018-01-10T05:47:28.749Z,87.03
2018-01-10T05:49:56.223Z,86.78
2018-01-10T05:52:23.731Z,86.85
2018-01-10T05:54:51.216Z,86.76
2018-01-10T05:57:18.739Z,86.72
2018-01-10T05:59:46.897Z,86.77
2018-01-10T06:02:14.965Z,86.71
2018-01-10T06:04:42.517Z,86.71
2018-01-10T06:07:10.070Z,86.65
2018-01-10T06:09:37.880Z,86.44
2018-01-10T06:12:06.152Z,86.17
2018-01-10T06:14:34.158Z,86.11
2018-01-10T06:17:01.658Z,86.05
2018-01-10T06:19:29.162Z,86.01
2018-01-10T06:21:56.699Z,85.71
2018-01-10T06:24:24.196Z,85.81
2018-01-10T06:26:51.759Z,85.97
2018-01-10T06:29:19.943Z,86.19
2018-01-10T06:31:48.704Z,86.22
2018-01-10T06:34:16.429Z,86.34
2018-01-10T06:36:43.920Z,86.24
2018-01-10T06:39:11.425Z,86.31
2018-01-10T06:41:39.857Z,86.38
2018-01-10T06:44:07.345Z,86.40
2018-01-10T06:46:34.875Z,86.40
2018-01-10T06:49:02.481Z,86.31
2018-01-10T06:51:29.939Z,86.24
2018-01-10T06:53:57.444Z,86.10
2018-01-10T06:56:25.050Z,85.98
2018-01-10T06:58:52.561Z,85.79
2018-01-10T07:01:20.020Z,85.78
2018-01-10T07:03:47.568Z,85.83
2018-01-10T07:06:15.091Z,85.86
2018-01-10T07:08:42.541Z,85.87
2018-01-10T07:11:10.011Z,85.82
2018-01-10T07:13:37.532Z,85.92
2018-01-10T07:16:05.043Z,85.93
2018-01-10T07:18:32.543Z,85.96
2018-01-10T07:21:00.157Z,86.30
2018-01-10T07:23:27.705Z,86.28
2018-01-10T07:25:55.238Z,86.40
2018-01-10T07:28:22.744Z,86.46
2018-01-10T07:30:50.200Z,86.39
2018-01-10T07:33:18.042Z,86.32
2018-01-10T07:35:45.496Z,86.34
2018-01-10T07:38:13.018Z,86.45
2018-01-10T07:40:40.514Z,86.56
2018-01-10T07:43:08.084Z,86.61
2018-01-10T07:45:35.585Z,86.77
2018-01-10T07:48:03.083Z,86.80
2018-01-10T07:50:30.632Z,86.50
2018-01-10T07:52:58.234Z,86.42
2018-01-10T07:55:25.754Z,86.28
2018-01-10T07:57:53.528Z,85.97
2018-01-10T08:00:21.269Z,85.82
2018-01-10T08:02:49.616Z,85.63
2018-01-10T08:05:17.128Z,85.69
2018-01-10T08:07:44.687Z,85.59
2018-01-10T08:10:12.241Z,85.32
2018-01-10T08:12:39.933Z,85.26
2018-01-10T08:15:07.413Z,85.19
2018-01-10T08:17:34.987Z,85.19
2018-01-10T08:20:02.451Z,85.42
2018-01-10T08:22:30.075Z,85.35
2018-01-10T08:24:57.559Z,85.45
2018-01-10T08:27:25.026Z,85.29
2018-01-10T08:29:52.490Z,85.16
2018-01-10T08:32:20.787Z,85.22
2018-01-10T08:34:49.163Z,85.24
2018-01-10T08:37:16.711Z,85.11
2018-01-10T08:39:44.321Z,84.95
2018-01-10T08:42:11.863Z,84.94
2018-01-10T08:44:39.503Z,84.95
2018-01-10T08:47:07.012Z,84.93
2018-01-10T08:49:34.546Z,85.05
2018-01-10T08:52:02.280Z,85.04
2018-01-10T08:54:29.768Z,84.87
2018-01-10T08:56:57.399Z,84.67
2018-01-10T08:59:24.959Z,84.59
2018-01-10T09:01:52.570Z,84.59
2018-01-10T09:04:20.125Z,84.47
2018-01-10T09:06:47.684Z,84.48
2018-01-10T09:09:16.491Z,84.50
2018-01-10T09:11:44.005Z,84.44
2018-01-10T09:14:11.521Z,84.24
2018-01-10T09:16:39.762Z,84.07
2018-01-10T09:19:08.020Z,83.76
2018-01-10T09:21:35.611Z,83.50
2018-01-10T09:24:03.196Z,83.07
2018-01-10T09:26:30.688Z,82.73
2018-01-10T09:28:58.179Z,82.55
2018-01-10T09:31:25.679Z,82.31
2018-01-10T09:33:53.247Z,82.05
2018-01-10T09:36:20.796Z,81.88
2018-01-10T09:38:48.897Z,82.03
2018-01-10T09:41:17.401Z,81.94
2018-01-10T09:43:45.134Z,81.98
2018-01-10T09:46:12.704Z,81.78
2018-01-10T09:48:40.316Z,81.59
2018-01-10T09:51:07.869Z,81.34
2018-01-10T09:53:35.431Z,81.20
2018-01-10T09:56:03.037Z,81.08
2018-01-10T09:58:31.415Z,80.75
2018-01-10T10:00:58.985Z,80.43
2018-01-10T10:03:26.567Z,80.22
2018-01-10T10:05:54.097Z,79.99
2018-01-10T10:08:21.622Z,79.62
2018-01-10T10:10:49.146Z,79.20
2018-01-10T10:13:16.889Z,79.05
2018-01-10T10:15:44.519Z,78.99
2018-01-10T10:18:12.006Z,78.71
2018-01-10T10:20:39.588Z,78.51
2018-01-10T10:23:07.059Z,78.36
2018-01-10T10:25:34.545Z,78.08
2018-01-10T10:28:02.156Z,77.93
2018-01-10T10:30:29.764Z,77.70
2018-01-10T10:32:57.295Z,77.37
2018-01-10T10:35:25.070Z,77.00
2018-01-10T10:37:52.730Z,76.74
2018-01-10T10:40:20.289Z,76.46
2018-01-10T10:42:47.840Z,76.30
2018-01-10T10:45:15.410Z,76.17
2018-01-10T10:47:42.909Z,75.72
2018-01-10T10:50:10.448Z,75.52
2018-01-10T10:52:38.032Z,75.25
2018-01-10T10:55:05.577Z,75.17
2018-01-10T10:57:33.097Z,74.46
2018-01-10T11:00:00.724Z,73.85
2018-01-10T11:02:28.424Z,74.06
2018-01-10T11:04:55.903Z,73.90
2018-01-10T11:07:25.743Z,73.98
2018-01-10T11:09:54.442Z,73.99
2018-01-10T11:12:21.985Z,74.30
2018-01-10T11:14:49.528Z,74.04
2018-01-10T11:17:17.065Z,74.17
2018-01-10T11:19:44.619Z,74.07
2018-01-10T11:22:12.131Z,74.02
2018-01-10T11:24:39.634Z,73.82
2018-01-10T11:27:07.238Z,73.34
2018-01-10T11:29:34.691Z,72.97
2018-01-10T11:32:02.318Z,72.93
2018-01-10T11:34:30.281Z,72.83
2018-01-10T11:36:57.859Z,72.62
2018-01-10T11:39:26.062Z,71.98
2018-01-10T11:41:53.760Z,71.38
2018-01-10T11:44:21.322Z,70.65
2018-01-10T11:46:49.015Z,69.98
2018-01-10T11:49:16.756Z,68.56
2018-01-10T11:58:29.874Z,64.28
2018-01-10T12:00:57.422Z,62.98
2018-01-10T12:03:25.084Z,62.12
2018-01-10T12:05:52.682Z,59.68
2018-01-10T12:08:20.457Z,59.30
2018-01-10T12:10:48.006Z,58.56
2018-01-10T12:13:15.497Z,58.20
2018-01-10T12:15:43.012Z,57.81
2018-01-10T12:18:10.525Z,58.27
2018-01-10T12:20:38.591Z,58.82
2018-01-10T12:23:06.067Z,58.59
2018-01-10T12:25:34.478Z,59.35
2018-01-10T12:28:02.037Z,59.57
2018-01-10T12:30:29.566Z,60.01
2018-01-10T12:32:57.112Z,60.55
2018-01-10T12:35:24.769Z,60.68
2018-01-10T12:37:52.408Z,60.68
2018-01-10T12:40:20.059Z,59.72
2018-01-10T12:42:47.665Z,58.95
2018-01-10T12:45:15.134Z,59.63
2018-01-10T12:47:42.651Z,58.50
2018-01-10T12:50:21.818Z,58.85
2018-01-10T12:52:49.331Z,58.99
2018-01-10T12:55:16.925Z,59.12
2018-01-10T12:57:46.180Z,59.44
2018-01-10T13:00:13.771Z,59.48
2018-01-10T13:02:41.373Z,59.34
2018-01-10T13:05:08.920Z,59.29
2018-01-10T13:07:36.526Z,59.57
2018-01-10T13:10:04.030Z,59.76
2018-01-10T13:12:31.531Z,59.34
2018-01-10T13:14:59.091Z,59.75
2018-01-10T13:17:26.815Z,59.59
2018-01-10T13:19:54.424Z,59.95
2018-01-10T13:22:22.370Z,60.46
2018-01-10T13:24:49.896Z,60.76
2018-01-10T13:27:17.628Z,60.97
2018-01-10T13:29:45.963Z,61.21
2018-01-10T13:32:13.422Z,61.56
2018-01-10T13:34:40.977Z,62.23
2018-01-10T13:37:08.508Z,62.61
2018-01-10T13:39:36.061Z,62.85
2018-01-10T13:42:03.622Z,63.59
2018-01-10T13:44:31.168Z,63.26
2018-01-10T13:46:58.744Z,63.73
2018-01-10T13:49:26.212Z,64.17
2018-01-10T13:51:53.714Z,64.33
2018-01-10T13:54:21.331Z,64.39
2018-01-10T13:56:49.678Z,64.43
2018-01-10T13:59:17.241Z,64.36
2018-01-10T14:01:55.187Z,64.53
2018-01-10T14:04:22.741Z,64.81
2018-01-10T14:06:50.231Z,64.36
2018-01-10T14:09:17.855Z,64.19
2018-01-10T14:11:45.473Z,63.89
2018-01-10T14:14:12.931Z,64.21
2018-01-10T14:16:40.554Z,64.62
2018-01-10T14:19:08.214Z,64.89
2018-01-10T14:21:37.486Z,64.67
2018-01-10T14:24:05.063Z,65.13
2018-01-10T14:26:33.343Z,65.44
2018-01-10T14:29:01.011Z,65.74
2018-01-10T14:31:28.583Z,65.92
2018-01-10T14:33:56.103Z,66.67
2018-01-10T14:36:23.643Z,66.50
2018-01-10T14:38:51.922Z,66.69
2018-01-10T14:41:19.484Z,66.86
2018-01-10T14:43:47.196Z,66.88
2018-01-10T14:46:14.727Z,66.94
2018-01-10T14:48:45.062Z,67.09
2018-01-10T14:51:12.646Z,67.29
2018-01-10T14:53:40.102Z,67.36
2018-01-10T14:56:07.697Z,67.40
2018-01-10T14:58:35.253Z,67.64
2018-01-10T15:01:02.783Z,67.77
2018-01-10T15:03:30.288Z,67.99
2018-01-10T15:05:57.865Z,68.43
2018-01-10T15:08:25.465Z,68.52
2018-01-10T15:10:53.014Z,68.51
2018-01-10T15:13:20.505Z,68.72
2018-01-10T15:15:47.970Z,68.74
2018-01-10T15:18:15.547Z,68.75
2018-01-10T15:20:43.065Z,69.10
2018-01-10T15:23:10.887Z,69.20
2018-01-10T15:25:38.414Z,69.17
2018-01-10T15:28:05.892Z,69.33
2018-01-10T15:30:33.471Z,69.47
2018-01-10T15:33:01.006Z,69.67
2018-01-10T15:35:28.495Z,69.80
2018-01-10T15:37:55.986Z,70.06
2018-01-10T15:40:28.431Z,70.46
2018-01-10T15:42:55.983Z,70.67
2018-01-10T15:45:23.470Z,70.72
2018-01-10T15:47:51.031Z,70.90
2018-01-10T15:50:19.361Z,70.95
2018-01-10T15:52:47.082Z,70.96
2018-01-10T15:55:14.815Z,70.89
2018-01-10T15:57:42.436Z,70.92
2018-01-10T16:00:10.935Z,70.74
2018-01-10T16:02:38.526Z,70.58
2018-01-10T16:05:05.995Z,70.91
2018-01-10T16:07:33.494Z,71.31
2018-01-10T16:10:01.058Z,71.69
2018-01-10T16:12:28.617Z,71.88
2018-01-10T16:14:56.080Z,72.05
2018-01-10T16:17:23.558Z,72.08
2018-01-10T16:19:51.106Z,72.00
2018-01-10T16:22:18.662Z,72.19
2018-01-10T16:24:46.226Z,72.16
2018-01-10T16:27:13.714Z,72.25
2018-01-10T16:29:41.295Z,72.40
2018-01-10T16:32:08.868Z,72.63
2018-01-10T16:34:36.451Z,72.92
2018-01-10T16:37:04.743Z,72.93
2018-01-10T16:39:32.351Z,73.03
2018-01-10T16:41:59.991Z,73.07
2018-01-10T16:44:27.544Z,73.11
2018-01-10T16:46:55.054Z,73.34
2018-01-10T16:49:22.594Z,73.47
2018-01-10T16:51:50.506Z,73.66
2018-01-10T16:54:18.041Z,73.77
2018-01-10T16:56:45.511Z,74.09
2018-01-10T16:59:13.021Z,74.48
2018-01-10T17:01:40.519Z,74.65
2018-01-10T17:04:08.007Z,74.97
2018-01-10T17:06:35.534Z,75.13
2018-01-10T17:09:03.011Z,75.55
2018-01-10T17:11:30.731Z,75.64
2018-01-10T17:13:58.348Z,75.65
2018-01-10T17:16:26.052Z,75.78
2018-01-10T17:18:53.672Z,75.91
2018-01-10T17:21:21.286Z,75.98
2018-01-10T17:23:49.094Z,76.11
2018-01-10T17:26:17.056Z,76.04
2018-01-10T17:28:44.661Z,76.14
2018-01-10T17:31:12.347Z,76.34
2018-01-10T17:33:39.897Z,76.00
2018-01-10T17:36:07.466Z,76.27
2018-01-10T17:38:35.084Z,76.93
2018-01-10T17:41:02.849Z,76.40
2018-01-10T17:43:30.367Z,76.53
2018-01-10T17:45:57.937Z,76.72
2018-01-10T17:48:25.767Z,76.79
2018-01-10T17:50:58.337Z,76.91
2018-01-10T17:53:26.063Z,76.98
2018-01-10T17:55:53.598Z,76.95
2018-01-10T17:58:21.243Z,76.92
2018-01-10T18:00:48.808Z,76.90
2018-01-10T18:03:16.671Z,76.90
2018-01-10T18:05:44.359Z,76.96
2018-01-10T18:08:12.032Z,76.78
2018-01-10T18:10:40.607Z,76.85
2018-01-10T18:13:08.190Z,77.15
2018-01-10T18:15:35.689Z,77.75
2018-01-10T18:18:03.706Z,77.95
2018-01-10T18:20:32.308Z,77.98
2018-01-10T18:22:59.903Z,77.92
2018-01-10T18:25:27.358Z,77.85
2018-01-10T18:27:54.947Z,77.74
2018-01-10T18:30:22.552Z,77.69
2018-01-10T18:32:50.082Z,77.72
2018-01-10T18:35:19.112Z,77.73
2018-01-10T18:37:47.059Z,77.76
2018-01-10T18:40:14.789Z,77.81
2018-01-10T18:42:42.356Z,77.75
2018-01-10T18:45:10.028Z,77.66
2018-01-10T18:47:37.639Z,77.76
2018-01-10T18:50:05.145Z,77.66
2018-01-10T18:52:32.765Z,77.42
2018-01-10T18:55:01.084Z,77.60
2018-01-10T18:57:28.691Z,77.83
2018-01-10T18:59:56.988Z,78.36
2018-01-10T19:02:24.661Z,78.35
2018-01-10T19:04:52.371Z,78.36
2018-01-10T19:07:21.502Z,78.50
2018-01-10T19:09:49.249Z,78.41
2018-01-10T19:12:16.988Z,78.40
2018-01-10T19:14:44.606Z,78.41
2018-01-10T19:17:12.813Z,78.47
2018-01-10T19:19:41.084Z,78.49
2018-01-10T19:22:10.019Z,78.46
2018-01-10T19:24:40.221Z,78.48
2018-01-10T19:27:08.300Z,78.53
2018-01-10T19:29:37.445Z,78.51
2018-01-10T19:32:05.397Z,78.32
2018-01-10T19:34:33.798Z,77.84
2018-01-10T19:37:01.500Z,78.11
2018-01-10T19:39:30.248Z,78.23
2018-01-10T19:41:59.173Z,78.26
2018-01-10T19:44:26.794Z,78.17
2018-01-10T19:46:56.243Z,78.26
2018-01-10T19:49:25.300Z,78.29
2018-01-10T19:51:54.312Z,78.37
2018-01-10T19:54:21.901Z,78.33
2018-01-10T19:56:50.877Z,78.31
2018-01-10T19:59:18.463Z,78.30
2018-01-10T20:01:46.310Z,78.11
2018-01-10T20:04:13.998Z,78.29
2018-01-10T20:06:41.510Z,78.79
2018-01-10T20:09:09.051Z,78.72
2018-01-10T20:11:36.585Z,78.76
2018-01-10T20:14:04.238Z,78.90
2018-01-10T20:16:31.798Z,78.95
2018-01-10T20:18:59.624Z,79.23
2018-01-10T20:21:36.898Z,79.41
2018-01-10T20:24:05.518Z,79.38
2018-01-10T20:26:33.757Z,79.20
2018-01-10T20:29:01.318Z,79.17
2018-01-10T20:31:28.818Z,79.23
2018-01-10T20:33:56.339Z,79.36
2018-01-10T20:36:24.092Z,79.46
2018-01-10T20:38:51.561Z,79.47
2018-01-10T20:41:19.457Z,79.56
2018-01-10T20:43:46.979Z,79.23
2018-01-10T20:46:14.564Z,79.11
2018-01-10T20:48:42.911Z,79.23
2018-01-10T20:51:10.408Z,79.33
2018-01-10T20:53:38.009Z,79.53
2018-01-10T20:56:05.580Z,79.52
2018-01-10T20:58:34.408Z,79.58
2018-01-10T21:01:01.961Z,79.69
2018-01-10T21:03:30.374Z,79.72
2018-01-10T21:05:58.139Z,79.66
2018-01-10T21:08:25.791Z,79.85
2018-01-10T21:10:54.006Z,79.90
2018-01-10T21:13:21.580Z,79.78
2018-01-10T21:15:49.115Z,79.59
2018-01-10T21:18:16.713Z,79.91
2018-01-10T21:20:44.267Z,80.03
2018-01-10T21:23:11.800Z,80.02
2018-01-10T21:25:40.394Z,79.91
2018-01-10T21:28:08.184Z,79.89
2018-01-10T21:30:36.593Z,79.68
2018-01-10T21:33:04.858Z,79.60
2018-01-10T21:35:32.404Z,79.66
2018-01-10T21:38:00.213Z,79.74
2018-01-10T21:40:27.877Z,79.81
2018-01-10T21:42:55.593Z,79.79
2018-01-10T21:45:23.143Z,79.79
2018-01-10T21:47:50.718Z,79.71
2018-01-10T21:50:19.136Z,79.69
2018-01-10T21:52:48.027Z,79.55
2018-01-10T21:55:16.102Z,79.44
2018-01-10T21:57:43.605Z,79.22
2018-01-10T22:00:11.132Z,79.14
2018-01-10T22:02:38.713Z,79.15
2018-01-10T22:05:06.478Z,79.14
2018-01-10T22:07:34.016Z,79.26
2018-01-10T22:10:01.553Z,79.13
2018-01-10T22:12:29.245Z,79.02
2018-01-10T22:14:56.740Z,79.17
2018-01-10T22:17:24.239Z,79.17
2018-01-10T22:19:51.931Z,79.30
2018-01-10T22:22:19.455Z,79.45
2018-01-10T22:24:46.965Z,79.38
2018-01-10T22:27:14.572Z,79.49
2018-01-10T22:29:42.207Z,79.48
2018-01-10T22:32:09.753Z,79.41
2018-01-10T22:34:37.995Z,79.41
2018-01-10T22:37:05.551Z,79.58
2018-01-10T22:39:33.095Z,79.62
2018-01-10T22:42:01.429Z,79.86
2018-01-10T22:44:28.921Z,79.88
2018-01-10T22:46:56.422Z,79.91
2018-01-10T22:49:24.051Z,79.69
2018-01-10T22:51:51.680Z,79.75
2018-01-10T22:54:20.125Z,79.93
2018-01-10T22:56:47.582Z,80.07
2018-01-10T22:59:15.043Z,80.15
2018-01-10T23:01:42.631Z,80.20
2018-01-10T23:04:10.138Z,80.19
2018-01-10T23:06:38.612Z,80.15
2018-01-10T23:09:06.178Z,80.39
2018-01-10T23:11:33.660Z,80.22
2018-01-10T23:14:01.133Z,80.20
2018-01-10T23:16:29.563Z,79.98
2018-01-10T23:18:57.073Z,79.87
2018-01-10T23:21:34.157Z,80.04
2018-01-10T23:24:01.677Z,80.38
2018-01-10T23:26:29.220Z,80.36
2018-01-10T23:28:56.934Z,80.39
2018-01-10T23:31:24.389Z,80.20
2018-01-10T23:33:51.869Z,80.15
2018-01-10T23:36:19.451Z,80.15
2018-01-10T23:38:46.934Z,80.02
2018-01-10T23:41:14.496Z,80.24
2018-01-10T23:43:41.998Z,80.20
2018-01-10T23:46:09.462Z,80.28
2018-01-10T23:48:36.942Z,80.35
2018-01-10T23:51:04.480Z,80.26
2018-01-10T23:53:31.999Z,80.18
2018-01-10T23:55:59.516Z,80.21
2018-01-10T23:58:27.015Z,80.25
